createdAt,value
2019-01-11T00:00:29.398Z,92.90
2019-01-11T00:02:57.817Z,93.20
2019-01-11T00:05:26.500Z,93.70
2019-01-11T00:07:55.145Z,93.10
2019-01-11T00:10:23.592Z,92.40
2019-01-11T00:12:52.032Z,92.30
2019-01-11T00:15:20.457Z,92.80
2019-01-11T00:17:48.890Z,92.50
2019-01-11T00:20:17.308Z,91.50
2019-01-11T00:22:45.971Z,91.30
2019-01-11T00:25:14.759Z,91.90
2019-01-11T00:27:43.204Z,91.60
2019-01-11T00:30:32.746Z,92.00
2019-01-11T00:33:01.165Z,92.10
2019-01-11T00:35:29.586Z,92.50
2019-01-11T00:37:58.011Z,92.50
2019-01-11T00:40:26.460Z,92.50
2019-01-11T00:42:54.929Z,92.70
2019-01-11T00:45:23.357Z,92.10
2019-01-11T00:47:52.021Z,92.00
2019-01-11T00:50:22.790Z,90.90
2019-01-11T00:52:51.202Z,91.30
2019-01-11T00:55:19.643Z,90.10
2019-01-11T00:57:48.131Z,90.00
2019-01-11T01:00:19.690Z,89.60
2019-01-11T01:02:48.254Z,89.10
2019-01-11T01:05:16.827Z,89.40
2019-01-11T01:07:45.318Z,90.10
2019-01-11T01:10:13.986Z,91.00
2019-01-11T01:12:42.398Z,90.50
2019-01-11T01:15:11.939Z,90.10
2019-01-11T01:17:40.417Z,89.00
2019-01-11T01:20:14.502Z,89.00
2019-01-11T01:22:42.922Z,89.80
2019-01-11T01:25:11.961Z,90.40
2019-01-11T01:27:40.752Z,90.30
2019-01-11T01:30:15.111Z,90.50
2019-01-11T01:32:43.695Z,89.20
2019-01-11T01:35:12.451Z,89.30
2019-01-11T01:37:41.351Z,89.50
2019-01-11T01:40:13.392Z,89.80
2019-01-11T01:42:42.046Z,90.50
2019-01-11T01:45:13.881Z,91.30
2019-01-11T01:47:42.294Z,91.40
2019-01-11T01:50:12.054Z,91.30
2019-01-11T01:52:40.468Z,91.60
2019-01-11T01:55:11.642Z,91.80
2019-01-11T01:57:40.332Z,91.00
2019-01-11T02:00:17.821Z,91.10
2019-01-11T02:02:46.474Z,91.40
2019-01-11T02:05:14.969Z,91.20
2019-01-11T02:07:43.453Z,91.10
2019-01-11T02:10:13.019Z,91.40
2019-01-11T02:12:41.430Z,91.00
2019-01-11T02:15:10.902Z,90.90
2019-01-11T02:17:39.310Z,91.10
2019-01-11T02:20:13.382Z,90.70
2019-01-11T02:22:41.864Z,90.20
2019-01-11T02:25:10.426Z,90.50
2019-01-11T02:27:38.845Z,90.10
2019-01-11T02:30:13.612Z,90.60
2019-01-11T02:32:42.049Z,90.70
2019-01-11T02:35:10.520Z,90.50
2019-01-11T02:37:39.154Z,90.80
2019-01-11T02:40:09.864Z,90.50
2019-01-11T02:42:38.540Z,90.40
2019-01-11T02:45:10.259Z,90.70
2019-01-11T02:47:38.749Z,90.70
2019-01-11T02:50:09.404Z,89.70
2019-01-11T02:52:37.822Z,90.00
2019-01-11T02:55:07.688Z,90.40
2019-01-11T02:57:36.170Z,90.50
2019-01-11T03:00:16.392Z,90.40
2019-01-11T03:02:44.971Z,89.60
2019-01-11T03:05:14.438Z,90.00
2019-01-11T03:07:43.028Z,90.30
2019-01-11T03:10:14.685Z,90.60
2019-01-11T03:12:43.182Z,90.70
2019-01-11T03:15:12.099Z,91.00
2019-01-11T03:17:40.942Z,90.90
2019-01-11T03:20:12.186Z,90.90
2019-01-11T03:22:40.863Z,91.00
2019-01-11T03:25:11.964Z,91.20
2019-01-11T03:27:40.374Z,91.10
2019-01-11T03:30:11.857Z,91.10
2019-01-11T03:32:40.355Z,91.30
2019-01-11T03:35:10.542Z,91.60
2019-01-11T03:37:39.309Z,92.00
2019-01-11T03:40:27.320Z,92.40
2019-01-11T03:42:55.812Z,92.60
2019-01-11T03:45:24.614Z,92.80
2019-01-11T03:47:53.303Z,92.70
2019-01-11T03:50:22.660Z,92.70
2019-01-11T03:52:51.085Z,92.60
2019-01-11T03:55:19.574Z,92.70
2019-01-11T03:57:48.403Z,93.00
2019-01-11T04:00:19.661Z,93.20
2019-01-11T04:02:48.197Z,93.20
2019-01-11T04:05:17.076Z,93.40
2019-01-11T04:07:45.617Z,93.70
2019-01-11T04:10:16.665Z,93.80
2019-01-11T04:12:45.189Z,93.80
2019-01-11T04:15:15.967Z,94.30
2019-01-11T04:17:44.930Z,94.70
2019-01-11T04:20:18.775Z,94.40
2019-01-11T04:22:48.974Z,94.10
2019-01-11T04:25:19.119Z,94.20
2019-01-11T04:27:47.807Z,94.20
2019-01-11T04:30:16.912Z,94.30
2019-01-11T04:32:45.551Z,94.40
2019-01-11T04:35:14.149Z,94.20
2019-01-11T04:37:42.627Z,94.20
2019-01-11T04:40:13.010Z,94.20
2019-01-11T04:42:41.417Z,94.60
2019-01-11T04:45:10.792Z,94.60
2019-01-11T04:47:39.199Z,94.50
2019-01-11T04:50:10.820Z,94.60
2019-01-11T04:52:39.226Z,94.50
2019-01-11T04:55:07.791Z,94.30
2019-01-11T04:57:36.202Z,94.20
2019-01-11T05:00:07.711Z,94.40
2019-01-11T05:02:36.113Z,94.50
2019-01-11T05:05:06.182Z,94.60
2019-01-11T05:07:34.587Z,94.60
2019-01-11T05:10:04.977Z,94.60
2019-01-11T05:12:33.385Z,94.70
2019-01-11T05:15:01.807Z,94.40
2019-01-11T05:17:30.217Z,94.10
2019-01-11T05:19:58.715Z,94.20
2019-01-11T05:22:27.127Z,93.90
2019-01-11T05:24:55.787Z,93.90
2019-01-11T05:27:24.272Z,93.90
2019-01-11T05:29:52.686Z,93.90
2019-01-11T05:32:21.098Z,93.80
2019-01-11T05:34:49.523Z,94.00
2019-01-11T05:37:17.933Z,93.80
2019-01-11T05:39:46.370Z,93.60
2019-01-11T05:42:14.777Z,93.60
2019-01-11T05:44:43.229Z,93.50
2019-01-11T05:47:11.634Z,92.90
2019-01-11T05:49:40.139Z,93.00
2019-01-11T05:52:08.558Z,93.20
2019-01-11T05:54:36.969Z,93.20
2019-01-11T05:57:05.404Z,93.60
2019-01-11T05:59:33.818Z,93.90
2019-01-11T06:02:02.242Z,93.90
2019-01-11T06:04:38.333Z,93.90
2019-01-11T06:07:08.426Z,94.00
2019-01-11T06:09:37.089Z,94.30
2019-01-11T06:12:05.546Z,94.40
2019-01-11T06:14:34.218Z,94.40
2019-01-11T06:17:02.902Z,94.30
2019-01-11T06:19:31.355Z,94.40
2019-01-11T06:21:59.788Z,94.30
2019-01-11T06:24:28.461Z,94.40
2019-01-11T06:26:56.950Z,94.40
2019-01-11T06:29:25.368Z,94.60
2019-01-11T06:31:58.303Z,94.40
2019-01-11T06:34:26.862Z,94.50
2019-01-11T06:36:56.431Z,94.80
2019-01-11T06:39:25.135Z,94.60
2019-01-11T06:41:55.647Z,94.20
2019-01-11T06:44:24.471Z,94.40
2019-01-11T06:46:52.944Z,94.50
2019-01-11T06:49:21.362Z,94.60
2019-01-11T06:51:49.887Z,94.70
2019-01-11T06:54:18.390Z,94.50
2019-01-11T06:56:46.809Z,94.40
2019-01-11T06:59:15.245Z,94.40
2019-01-11T07:01:43.885Z,94.40
2019-01-11T07:04:12.415Z,94.10
2019-01-11T07:06:41.094Z,94.20
2019-01-11T07:09:09.598Z,94.40
2019-01-11T07:11:38.359Z,94.30
2019-01-11T07:14:07.094Z,94.40
2019-01-11T07:16:35.568Z,94.40
2019-01-11T07:19:04.074Z,94.30
2019-01-11T07:21:32.530Z,94.30
2019-01-11T07:24:00.947Z,93.80
2019-01-11T07:26:29.362Z,93.90
2019-01-11T07:28:57.785Z,93.80
2019-01-11T07:31:26.538Z,94.10
2019-01-11T07:33:55.027Z,94.20
2019-01-11T07:36:29.674Z,94.10
2019-01-11T07:38:58.550Z,94.00
2019-01-11T07:41:27.009Z,93.90
2019-01-11T07:43:55.789Z,93.80
2019-01-11T07:46:24.295Z,93.20
2019-01-11T07:48:52.957Z,93.30
2019-01-11T07:51:23.229Z,93.00
2019-01-11T07:53:51.727Z,93.00
2019-01-11T07:56:20.302Z,93.10
2019-01-11T07:58:48.784Z,93.10
2019-01-11T08:01:17.196Z,92.60
2019-01-11T08:03:48.970Z,92.70
2019-01-11T08:06:18.482Z,92.70
2019-01-11T08:08:57.159Z,92.30
2019-01-11T08:11:25.615Z,91.60
2019-01-11T08:13:54.058Z,91.40
2019-01-11T08:16:22.471Z,91.70
2019-01-11T08:18:50.907Z,91.50
2019-01-11T08:21:19.495Z,91.40
2019-01-11T08:23:48.178Z,91.40
2019-01-11T08:26:16.859Z,91.30
2019-01-11T08:28:45.664Z,91.20
2019-01-11T08:31:14.147Z,90.80
2019-01-11T08:33:42.595Z,90.50
2019-01-11T08:36:11.007Z,90.40
2019-01-11T08:38:39.444Z,90.60
2019-01-11T08:41:07.884Z,90.60
2019-01-11T08:43:36.303Z,89.90
2019-01-11T08:46:05.002Z,89.80
2019-01-11T08:48:33.462Z,89.00
2019-01-11T08:51:02.849Z,87.90
2019-01-11T08:53:31.498Z,88.60
2019-01-11T08:55:59.980Z,88.60
2019-01-11T08:58:28.411Z,87.90
2019-01-11T09:00:56.865Z,86.50
2019-01-11T09:03:25.576Z,86.90
2019-01-11T09:05:54.271Z,86.80
2019-01-11T09:08:22.695Z,86.00
2019-01-11T09:10:51.122Z,86.40
2019-01-11T09:13:19.549Z,86.00
2019-01-11T09:15:49.150Z,85.70
2019-01-11T09:18:17.845Z,85.60
2019-01-11T09:20:46.270Z,85.60
2019-01-11T09:23:14.934Z,85.80
2019-01-11T09:25:43.366Z,85.00
2019-01-11T09:28:11.801Z,85.00
2019-01-11T09:30:40.290Z,85.60
2019-01-11T09:33:08.780Z,85.80
2019-01-11T09:35:37.213Z,85.40
2019-01-11T09:38:05.645Z,84.80
2019-01-11T09:40:34.342Z,85.20
2019-01-11T09:43:03.034Z,84.80
2019-01-11T09:45:31.494Z,85.90
2019-01-11T09:47:59.913Z,86.50
2019-01-11T09:50:28.365Z,85.00
2019-01-11T09:52:56.782Z,86.70
2019-01-11T09:55:25.212Z,87.20
2019-01-11T09:57:53.694Z,83.60
2019-01-11T10:00:25.098Z,84.20
2019-01-11T10:02:57.654Z,83.20
2019-01-11T10:05:26.223Z,83.20
2019-01-11T10:07:54.695Z,82.40
2019-01-11T10:10:23.130Z,82.40
2019-01-11T10:12:51.555Z,83.50
2019-01-11T10:15:20.122Z,80.50
2019-01-11T10:17:50.314Z,79.40
2019-01-11T10:20:18.742Z,73.50
2019-01-11T10:22:47.161Z,79.00
2019-01-11T10:25:15.601Z,76.30
2019-01-11T10:27:44.015Z,76.60
2019-01-11T10:30:15.546Z,77.50
2019-01-11T10:32:44.097Z,72.80
2019-01-11T10:35:12.788Z,74.30
2019-01-11T10:37:42.130Z,73.70
2019-01-11T10:40:13.449Z,76.20
2019-01-11T10:42:42.687Z,77.70
2019-01-11T10:45:14.333Z,76.80
2019-01-11T10:47:42.754Z,76.10
2019-01-11T10:50:14.007Z,76.50
2019-01-11T10:52:42.457Z,78.50
2019-01-11T10:55:13.434Z,77.40
2019-01-11T10:57:41.989Z,76.20
2019-01-11T11:00:16.367Z,75.90
2019-01-11T11:02:44.869Z,77.60
2019-01-11T11:05:13.514Z,76.00
2019-01-11T11:07:41.957Z,76.60
2019-01-11T11:10:12.087Z,74.80
2019-01-11T11:12:40.518Z,75.70
2019-01-11T11:15:12.141Z,76.60
2019-01-11T11:17:40.574Z,76.60
2019-01-11T11:20:12.133Z,77.80
2019-01-11T11:22:40.626Z,77.50
2019-01-11T11:25:11.695Z,78.20
2019-01-11T11:27:40.125Z,78.00
2019-01-11T11:30:11.380Z,78.70
2019-01-11T11:32:58.638Z,79.40
2019-01-11T11:35:27.360Z,79.70
2019-01-11T11:37:55.821Z,78.70
2019-01-11T11:40:24.381Z,77.10
2019-01-11T11:42:52.814Z,79.60
2019-01-11T11:45:21.233Z,79.90
2019-01-11T11:47:49.686Z,78.40
2019-01-11T11:50:18.118Z,79.00
2019-01-11T11:52:46.562Z,78.50
2019-01-11T11:55:15.065Z,77.60
2019-01-11T11:57:43.490Z,78.80
2019-01-11T12:00:15.139Z,79.40
2019-01-11T12:02:43.562Z,78.60
2019-01-11T12:05:12.217Z,78.00
2019-01-11T12:07:40.660Z,78.20
2019-01-11T12:10:11.718Z,78.60
2019-01-11T12:12:40.505Z,79.00
2019-01-11T12:15:10.907Z,80.60
2019-01-11T12:17:39.353Z,81.30
2019-01-11T12:20:11.129Z,82.20
2019-01-11T12:22:39.935Z,80.90
2019-01-11T12:25:08.603Z,81.60
2019-01-11T12:27:37.017Z,83.20
2019-01-11T12:30:11.700Z,81.40
2019-01-11T12:32:40.150Z,83.00
2019-01-11T12:35:08.572Z,83.10
2019-01-11T12:37:36.998Z,82.90
2019-01-11T12:40:08.454Z,84.40
2019-01-11T12:42:36.915Z,84.50
2019-01-11T12:45:07.782Z,85.40
2019-01-11T12:47:36.518Z,84.60
2019-01-11T12:50:11.481Z,85.40
2019-01-11T12:52:39.888Z,85.40
2019-01-11T12:55:08.377Z,86.80
2019-01-11T12:57:36.798Z,87.90
2019-01-11T13:00:11.821Z,89.20
2019-01-11T13:02:40.233Z,90.20
2019-01-11T13:05:11.025Z,90.20
2019-01-11T13:07:39.657Z,90.30
2019-01-11T13:10:11.250Z,90.60
2019-01-11T13:12:39.658Z,90.90
2019-01-11T13:15:11.598Z,90.20
2019-01-11T13:17:40.081Z,90.70
2019-01-11T13:20:11.447Z,91.10
2019-01-11T13:22:39.929Z,91.00
2019-01-11T13:25:09.399Z,90.80
2019-01-11T13:27:37.819Z,90.90
2019-01-11T13:30:09.736Z,90.60
2019-01-11T13:32:38.148Z,91.70
2019-01-11T13:35:07.710Z,91.30
2019-01-11T13:37:36.120Z,90.80
2019-01-11T13:40:16.738Z,91.30
2019-01-11T13:42:45.181Z,91.50
2019-01-11T13:45:14.086Z,91.80
2019-01-11T13:47:42.530Z,92.50
2019-01-11T13:50:14.041Z,92.70
2019-01-11T13:52:42.450Z,92.40
2019-01-11T13:55:10.950Z,92.80
2019-01-11T13:57:39.600Z,93.20
2019-01-11T14:00:11.139Z,93.60
2019-01-11T14:02:39.645Z,93.90
2019-01-11T14:05:08.142Z,93.70
2019-01-11T14:07:36.564Z,93.30
2019-01-11T14:10:06.030Z,93.40
2019-01-11T14:12:34.445Z,93.60
2019-01-11T14:15:02.973Z,93.30
2019-01-11T14:17:31.416Z,93.60
2019-01-11T14:19:59.853Z,93.70
2019-01-11T14:22:28.274Z,93.90
2019-01-11T14:24:56.703Z,94.10
2019-01-11T14:27:25.138Z,94.10
2019-01-11T14:29:53.570Z,94.10
2019-01-11T14:32:22.254Z,94.80
2019-01-11T14:34:50.689Z,94.80
2019-01-11T14:37:19.150Z,95.00
2019-01-11T14:39:47.758Z,95.30
2019-01-11T14:42:16.181Z,95.60
2019-01-11T14:44:44.592Z,95.60
2019-01-11T14:47:13.010Z,95.70
2019-01-11T14:49:41.421Z,96.30
2019-01-11T14:52:10.067Z,96.30
2019-01-11T14:54:38.524Z,96.10
2019-01-11T14:57:07.190Z,96.20
2019-01-11T14:59:35.639Z,96.70
2019-01-11T15:02:04.742Z,97.00
2019-01-11T15:04:33.221Z,97.40
2019-01-11T15:07:01.948Z,97.50
2019-01-11T15:09:30.467Z,97.30
2019-01-11T15:11:58.935Z,97.20
2019-01-11T15:14:27.341Z,97.20
2019-01-11T15:16:55.780Z,97.50
2019-01-11T15:19:24.194Z,97.50
2019-01-11T15:21:52.638Z,97.50
2019-01-11T15:24:21.086Z,97.50
2019-01-11T15:26:49.692Z,97.80
2019-01-11T15:29:18.106Z,97.90
2019-01-11T15:31:46.556Z,98.10
2019-01-11T15:34:14.975Z,98.10
2019-01-11T15:36:43.411Z,98.20
2019-01-11T15:39:11.838Z,98.30
2019-01-11T15:41:40.543Z,98.40
2019-01-11T15:44:08.980Z,98.40
2019-01-11T15:46:37.446Z,98.20
2019-01-11T15:49:05.872Z,98.20
2019-01-11T15:51:34.286Z,98.30
2019-01-11T15:54:02.798Z,98.40
2019-01-11T15:56:31.318Z,98.50
2019-01-11T15:59:00.597Z,98.60
2019-01-11T16:01:29.241Z,98.70
2019-01-11T16:03:57.768Z,98.70
2019-01-11T16:06:28.216Z,98.60
2019-01-11T16:09:16.930Z,98.50
2019-01-11T16:12:00.056Z,98.60
2019-01-11T16:14:34.191Z,98.60
2019-01-11T16:17:06.247Z,98.70
2019-01-11T16:19:34.683Z,98.60
2019-01-11T16:22:03.109Z,98.80
2019-01-11T16:24:31.565Z,98.80
2019-01-11T16:26:59.980Z,98.60
2019-01-11T16:29:28.443Z,98.70
2019-01-11T16:31:56.875Z,98.70
2019-01-11T16:34:25.308Z,98.80
2019-01-11T16:36:53.749Z,99.00
2019-01-11T16:39:22.174Z,99.00
2019-01-11T16:41:50.692Z,98.90
2019-01-11T16:44:19.238Z,99.00
2019-01-11T16:46:47.675Z,99.00
2019-01-11T16:49:16.104Z,99.00
2019-01-11T16:51:44.523Z,99.20
2019-01-11T16:54:13.051Z,99.20
2019-01-11T16:56:41.544Z,99.40
2019-01-11T16:59:09.981Z,99.50
2019-01-11T17:01:38.399Z,99.60
2019-01-11T17:04:06.893Z,99.30
2019-01-11T17:06:35.341Z,99.20
2019-01-11T17:09:05.401Z,99.40
2019-01-11T17:11:33.824Z,99.20
2019-01-11T17:14:02.557Z,99.10
2019-01-11T17:16:30.999Z,99.20
2019-01-11T17:18:59.429Z,99.10
2019-01-11T17:21:27.854Z,99.30
2019-01-11T17:23:56.386Z,99.10
2019-01-11T17:26:24.843Z,99.40
2019-01-11T17:28:53.279Z,99.40
2019-01-11T17:31:21.758Z,99.30
2019-01-11T17:33:50.210Z,99.50
2019-01-11T17:36:18.647Z,99.50
2019-01-11T17:38:47.074Z,99.30
2019-01-11T17:41:15.649Z,99.40
2019-01-11T17:43:44.093Z,99.20
2019-01-11T17:46:12.732Z,99.30
2019-01-11T17:48:41.235Z,99.40
2019-01-11T17:51:09.699Z,99.30
2019-01-11T17:53:38.122Z,99.10
2019-01-11T17:56:06.557Z,99.10
2019-01-11T17:58:35.010Z,99.10
2019-01-11T18:01:03.509Z,98.80
2019-01-11T18:03:31.915Z,98.50
2019-01-11T18:06:00.350Z,98.50
2019-01-11T18:08:28.775Z,98.50
2019-01-11T18:10:57.214Z,98.60
2019-01-11T18:13:25.686Z,98.50
2019-01-11T18:15:54.206Z,98.30
2019-01-11T18:18:22.625Z,98.50
2019-01-11T18:20:51.054Z,98.80
2019-01-11T18:23:19.504Z,98.80
2019-01-11T18:25:47.983Z,98.80
2019-01-11T18:28:16.468Z,98.60
2019-01-11T18:30:44.897Z,98.20
2019-01-11T18:33:13.339Z,98.20
2019-01-11T18:35:41.793Z,98.30
2019-01-11T18:38:10.219Z,98.30
2019-01-11T18:40:38.718Z,98.40
2019-01-11T18:43:07.159Z,98.70
2019-01-11T18:45:35.609Z,98.70
2019-01-11T18:48:04.201Z,98.50
2019-01-11T18:50:32.626Z,98.20
2019-01-11T18:53:01.042Z,98.30
2019-01-11T18:55:29.474Z,98.40
2019-01-11T18:57:58.174Z,98.30
2019-01-11T19:00:27.086Z,98.10
2019-01-11T19:02:55.510Z,98.40
2019-01-11T19:05:24.005Z,98.50
2019-01-11T19:07:52.434Z,98.70
2019-01-11T19:10:21.483Z,98.50
2019-01-11T19:12:49.956Z,98.70
2019-01-11T19:15:21.141Z,98.70
2019-01-11T19:17:49.647Z,98.80
2019-01-11T19:20:20.564Z,99.10
2019-01-11T19:22:49.045Z,98.90
2019-01-11T19:25:17.516Z,98.90
2019-01-11T19:27:46.178Z,99.10
2019-01-11T19:30:25.730Z,99.20
2019-01-11T19:32:54.226Z,98.90
2019-01-11T19:35:22.756Z,99.30
2019-01-11T19:37:51.209Z,99.30
2019-01-11T19:40:19.807Z,99.20
2019-01-11T19:42:48.676Z,99.30
2019-01-11T19:45:17.812Z,99.30
2019-01-11T19:47:46.388Z,99.20
2019-01-11T19:50:17.527Z,99.30
2019-01-11T19:52:46.608Z,99.30
2019-01-11T19:55:15.432Z,99.50
2019-01-11T19:57:43.896Z,99.30
2019-01-11T20:00:21.008Z,99.50
2019-01-11T20:02:50.776Z,99.60
2019-01-11T20:05:20.044Z,99.70
2019-01-11T20:07:48.779Z,99.90
2019-01-11T20:10:20.608Z,99.70
2019-01-11T20:12:49.047Z,99.90
2019-01-11T20:15:17.782Z,99.90
2019-01-11T20:17:46.482Z,99.80
2019-01-11T20:20:15.791Z,99.70
2019-01-11T20:22:44.648Z,99.30
2019-01-11T20:25:18.114Z,99.20
2019-01-11T20:27:46.614Z,99.20
2019-01-11T20:30:17.749Z,99.30
2019-01-11T20:32:46.309Z,99.30
2019-01-11T20:35:14.799Z,99.10
2019-01-11T20:37:43.427Z,99.30
2019-01-11T20:40:14.386Z,99.60
2019-01-11T20:42:42.837Z,99.60
2019-01-11T20:45:13.713Z,99.60
2019-01-11T20:47:42.152Z,99.50
2019-01-11T20:50:13.763Z,99.30
2019-01-11T20:52:42.202Z,99.20
2019-01-11T20:55:11.358Z,99.20
2019-01-11T20:57:39.850Z,99.30
2019-01-11T21:00:15.403Z,99.20
2019-01-11T21:02:43.967Z,99.20
2019-01-11T21:05:12.842Z,99.30
2019-01-11T21:07:41.302Z,99.60
2019-01-11T21:10:11.476Z,99.70
2019-01-11T21:12:39.886Z,99.90
2019-01-11T21:15:16.993Z,99.90
2019-01-11T21:17:45.475Z,99.90
2019-01-11T21:20:16.242Z,99.90
2019-01-11T21:22:45.014Z,99.90
2019-01-11T21:25:15.383Z,99.90
2019-01-11T21:27:43.867Z,99.90
2019-01-11T21:30:17.795Z,99.90
2019-01-11T21:32:46.378Z,99.90
2019-01-11T21:35:14.866Z,99.90
2019-01-11T21:37:43.312Z,99.90
2019-01-11T21:40:15.222Z,99.90
2019-01-11T21:42:43.637Z,99.90
2019-01-11T21:45:12.476Z,99.90
2019-01-11T21:47:40.978Z,99.90
2019-01-11T21:50:14.965Z,99.90
2019-01-11T21:52:43.378Z,99.90
2019-01-11T21:55:13.078Z,99.90
2019-01-11T21:57:41.534Z,99.90
2019-01-11T22:00:25.369Z,99.90
2019-01-11T22:02:53.847Z,99.90
2019-01-11T22:05:22.365Z,99.90
2019-01-11T22:07:50.775Z,99.90
2019-01-11T22:10:19.221Z,99.90
2019-01-11T22:12:47.894Z,99.90
2019-01-11T22:15:19.495Z,99.90
2019-01-11T22:17:48.018Z,99.90
2019-01-11T22:20:18.022Z,99.90
2019-01-11T22:22:46.417Z,99.90
2019-01-11T22:25:16.183Z,99.90
2019-01-11T22:27:44.677Z,99.90
2019-01-11T22:30:16.218Z,99.90
2019-01-11T22:32:44.631Z,99.70
2019-01-11T22:35:13.294Z,99.70
2019-01-11T22:37:41.702Z,99.70
2019-01-11T22:40:13.495Z,99.60
2019-01-11T22:42:41.923Z,99.20
2019-01-11T22:45:12.687Z,99.10
2019-01-11T22:47:41.193Z,99.00
2019-01-11T22:50:12.177Z,98.90
2019-01-11T22:52:40.726Z,99.00
2019-01-11T22:55:11.402Z,99.00
2019-01-11T22:57:40.220Z,99.20
2019-01-11T23:00:21.291Z,98.90
2019-01-11T23:02:50.451Z,98.70
2019-01-11T23:05:18.880Z,98.50
2019-01-11T23:07:47.278Z,98.30
2019-01-11T23:10:21.836Z,98.40
2019-01-11T23:12:53.806Z,98.20
2019-01-11T23:15:22.235Z,98.50
2019-01-11T23:17:52.746Z,98.60
2019-01-11T23:20:21.447Z,98.70
2019-01-11T23:22:49.886Z,98.60
2019-01-11T23:25:18.299Z,98.50
2019-01-11T23:27:46.738Z,98.90
2019-01-11T23:30:17.282Z,98.80
2019-01-11T23:32:45.693Z,98.90
2019-01-11T23:35:14.437Z,98.90
2019-01-11T23:37:42.931Z,98.90
2019-01-11T23:40:13.057Z,98.90
2019-01-11T23:42:41.506Z,99.10
2019-01-11T23:45:11.663Z,99.20
2019-01-11T23:47:40.086Z,99.40
2019-01-11T23:50:11.842Z,99.50
2019-01-11T23:52:40.327Z,99.30
2019-01-11T23:55:10.102Z,99.50
2019-01-11T23:57:38.526Z,99.50
